createdAt,value
2022-07-31T00:06:14.013Z,115.93
2022-07-31T00:20:17.603Z,117.75
2022-07-31T00:27:19.206Z,117.57
2022-07-31T00:34:20.825Z,117.82
2022-07-31T00:41:22.428Z,124.30
2022-07-31T00:48:24.887Z,125.47
2022-07-31T00:55:26.482Z,122.40
2022-07-31T01:02:28.111Z,122.00
2022-07-31T01:09:29.919Z,119.43
2022-07-31T01:16:34.094Z,123.63
2022-07-31T01:24:01.700Z,124.20
2022-07-31T01:31:27.082Z,122.35
2022-07-31T01:38:32.911Z,119.72
2022-07-31T01:45:35.316Z,120.57
2022-07-31T01:52:38.233Z,124.05
2022-07-31T01:59:44.499Z,117.60
2022-07-31T02:06:54.210Z,123.95
2022-07-31T02:13:55.876Z,125.13
2022-07-31T02:20:57.842Z,122.88
2022-07-31T02:28:00.613Z,123.90
2022-07-31T02:35:02.431Z,112.70
2022-07-31T02:42:04.468Z,116.07
2022-07-31T02:49:06.602Z,114.45
2022-07-31T02:56:09.342Z,115.43
2022-07-31T03:03:13.416Z,118.82
2022-07-31T03:10:16.571Z,116.97
2022-07-31T03:17:38.315Z,117.55
2022-07-31T03:31:54.138Z,123.38
2022-07-31T03:38:55.958Z,121.93
2022-07-31T03:46:03.351Z,117.90
2022-07-31T03:53:07.224Z,117.95
2022-07-31T04:00:17.734Z,120.15
2022-07-31T04:07:19.774Z,119.22
2022-07-31T04:14:21.725Z,119.70
2022-07-31T04:21:23.395Z,121.35
2022-07-31T04:28:26.350Z,117.72
2022-07-31T04:35:28.073Z,120.28
2022-07-31T04:42:32.636Z,117.22
2022-07-31T04:49:34.927Z,117.75
2022-07-31T04:56:42.181Z,116.63
2022-07-31T05:03:44.016Z,115.10
2022-07-31T05:11:04.400Z,114.07
2022-07-31T05:18:07.687Z,107.28
2022-07-31T05:25:27.583Z,112.65
2022-07-31T05:32:29.226Z,113.72
2022-07-31T05:39:30.999Z,104.88
2022-07-31T05:53:52.966Z,110.55
2022-07-31T06:01:13.495Z,107.97
2022-07-31T06:08:17.235Z,105.00
2022-07-31T06:15:22.729Z,109.03
2022-07-31T06:22:24.582Z,104.60
2022-07-31T06:29:41.313Z,98.72
2022-07-31T06:36:44.441Z,99.32
2022-07-31T06:43:49.797Z,100.05
2022-07-31T06:51:29.810Z,99.25
2022-07-31T06:58:32.012Z,102.72
2022-07-31T07:05:34.511Z,102.25
2022-07-31T07:12:37.941Z,99.53
2022-07-31T07:19:40.636Z,93.63
2022-07-31T07:26:43.387Z,90.05
2022-07-31T07:33:45.569Z,89.75
2022-07-31T07:40:53.702Z,84.73
2022-07-31T07:48:06.214Z,85.22
2022-07-31T07:55:21.155Z,81.70
2022-07-31T08:03:46.787Z,76.20
2022-07-31T08:10:19.108Z,93.13
2022-07-31T08:17:25.766Z,88.60
2022-07-31T08:24:27.552Z,95.82
2022-07-31T08:31:30.523Z,90.90
2022-07-31T08:39:03.487Z,76.15
2022-07-31T08:46:25.918Z,79.03
2022-07-31T08:53:29.274Z,60.85
2022-07-31T09:00:45.622Z,84.68
2022-07-31T09:07:47.376Z,77.22
2022-07-31T09:14:49.490Z,55.65
2022-07-31T09:21:52.410Z,40.88
2022-07-31T09:28:55.186Z,28.58
2022-07-31T09:35:57.661Z,26.40
2022-07-31T09:42:59.367Z,42.30
2022-07-31T09:50:05.345Z,38.77
2022-07-31T09:57:14.864Z,31.23
2022-07-31T10:04:23.579Z,25.40
2022-07-31T10:11:26.227Z,29.92
2022-07-31T10:18:47.587Z,15.43
2022-07-31T10:26:10.423Z,38.70
2022-07-31T10:33:40.862Z,40.50
2022-07-31T10:41:00.066Z,36.97
2022-07-31T10:48:03.923Z,42.25
2022-07-31T10:55:27.098Z,46.58
2022-07-31T11:02:51.653Z,47.65
2022-07-31T11:10:17.836Z,44.90
2022-07-31T11:18:17.444Z,39.13
2022-07-31T11:25:00.505Z,39.95
2022-07-31T11:32:05.062Z,44.70
2022-07-31T11:39:06.788Z,39.05
2022-07-31T11:46:08.776Z,32.42
2022-07-31T11:53:10.936Z,41.55
2022-07-31T12:00:26.679Z,37.72
2022-07-31T12:07:31.010Z,35.53
2022-07-31T12:14:37.177Z,34.53
2022-07-31T12:21:40.104Z,28.52
2022-07-31T12:28:41.788Z,20.40
2022-07-31T12:35:56.284Z,20.55
2022-07-31T12:42:59.563Z,38.88
2022-07-31T12:50:01.390Z,43.83
2022-07-31T12:57:03.640Z,59.53
2022-07-31T13:04:07.470Z,47.65
2022-07-31T13:11:09.801Z,54.20
2022-07-31T13:18:11.476Z,66.70
2022-07-31T13:25:13.165Z,63.67
2022-07-31T13:32:15.164Z,52.20
2022-07-31T13:39:16.856Z,45.15
2022-07-31T13:46:19.220Z,34.58
2022-07-31T13:53:20.905Z,27.13
2022-07-31T14:00:22.543Z,24.45
2022-07-31T14:07:24.138Z,35.83
2022-07-31T14:14:45.744Z,23.05
2022-07-31T14:21:56.141Z,25.42
2022-07-31T14:29:09.842Z,20.92
2022-07-31T14:36:11.511Z,25.00
2022-07-31T14:43:13.093Z,21.30
2022-07-31T14:50:19.065Z,19.05
2022-07-31T14:57:22.500Z,30.53
2022-07-31T15:04:24.415Z,31.02
2022-07-31T15:11:59.397Z,26.63
2022-07-31T15:18:51.305Z,30.05
2022-07-31T15:25:53.272Z,34.72
2022-07-31T15:32:54.937Z,33.88
2022-07-31T15:40:01.600Z,41.70
2022-07-31T15:47:05.377Z,37.70
2022-07-31T15:54:07.187Z,30.77
2022-07-31T16:01:09.113Z,26.45
2022-07-31T16:08:30.841Z,18.08
2022-07-31T16:15:34.530Z,33.30
2022-07-31T16:22:37.171Z,42.30
2022-07-31T16:29:59.925Z,52.47
2022-07-31T16:37:00.385Z,61.58
2022-07-31T16:44:02.110Z,59.13
2022-07-31T16:51:04.049Z,66.72
2022-07-31T16:58:08.752Z,65.60
2022-07-31T17:05:10.348Z,62.95
2022-07-31T17:12:12.072Z,68.22
2022-07-31T17:19:13.680Z,62.80
2022-07-31T17:26:20.840Z,65.00
2022-07-31T17:33:23.355Z,76.32
2022-07-31T17:40:46.807Z,74.55
2022-07-31T17:47:48.403Z,79.00
2022-07-31T17:55:06.534Z,89.40
2022-07-31T18:02:08.710Z,100.65
2022-07-31T18:09:11.108Z,83.43
2022-07-31T18:16:12.739Z,79.20
2022-07-31T18:23:14.570Z,64.80
2022-07-31T18:30:16.783Z,82.40
2022-07-31T18:37:18.404Z,96.57
2022-07-31T18:44:21.867Z,94.35
2022-07-31T18:51:24.707Z,91.25
2022-07-31T18:58:26.384Z,97.75
2022-07-31T19:05:28.177Z,101.82
2022-07-31T19:12:29.786Z,116.68
2022-07-31T19:19:38.273Z,107.03
2022-07-31T19:26:53.474Z,111.40
2022-07-31T19:33:55.094Z,104.50
2022-07-31T19:40:56.707Z,103.53
2022-07-31T19:47:58.996Z,104.85
2022-07-31T19:55:00.617Z,110.30
2022-07-31T20:02:02.566Z,125.68
2022-07-31T20:09:05.388Z,104.95
2022-07-31T20:16:07.019Z,132.75
2022-07-31T20:23:09.212Z,135.52
2022-07-31T20:30:11.596Z,122.15
2022-07-31T20:37:13.250Z,122.80
2022-07-31T20:44:14.921Z,122.13
2022-07-31T20:51:21.818Z,119.43
2022-07-31T20:58:23.849Z,120.63
2022-07-31T21:05:29.603Z,118.40
2022-07-31T21:12:31.227Z,111.93
2022-07-31T21:19:32.841Z,117.28
2022-07-31T21:26:34.449Z,123.85
2022-07-31T21:33:36.432Z,122.40
2022-07-31T21:40:38.768Z,114.18
2022-07-31T21:47:52.953Z,113.40
2022-07-31T21:54:54.912Z,109.88
2022-07-31T22:01:57.852Z,107.63
2022-07-31T22:09:09.819Z,106.47
2022-07-31T22:16:11.440Z,104.65
2022-07-31T22:23:13.248Z,120.07
2022-07-31T22:30:15.492Z,110.68
2022-07-31T22:37:17.113Z,120.18
2022-07-31T22:44:22.807Z,115.80
2022-07-31T22:51:24.754Z,109.85
2022-07-31T22:58:26.357Z,109.70
2022-07-31T23:05:28.075Z,93.28
2022-07-31T23:12:29.700Z,87.57
2022-07-31T23:19:31.383Z,80.72
2022-07-31T23:26:33.026Z,78.65
2022-07-31T23:33:34.609Z,76.78
2022-07-31T23:40:36.295Z,80.63
2022-07-31T23:47:45.521Z,79.22
2022-07-31T23:54:48.110Z,88.32
